createdAt,value
2023-04-02T00:01:48.367Z,74.10
2023-04-02T00:04:22.525Z,73.94
2023-04-02T00:06:54.612Z,73.75
2023-04-02T00:09:37.857Z,73.88
2023-04-02T00:12:18.342Z,73.79
2023-04-02T00:14:49.929Z,74.05
2023-04-02T00:17:21.844Z,74.38
2023-04-02T00:19:57.350Z,74.10
2023-04-02T00:22:29.325Z,74.20
2023-04-02T00:25:01.301Z,74.54
2023-04-02T00:27:32.262Z,74.36
2023-04-02T00:30:00.742Z,74.62
2023-04-02T00:32:32.095Z,74.10
2023-04-02T00:35:00.965Z,75.14
2023-04-02T00:37:39.087Z,74.36
2023-04-02T00:40:16.727Z,74.01
2023-04-02T00:42:46.540Z,75.22
2023-04-02T00:45:22.882Z,74.44
2023-04-02T00:47:51.259Z,74.01
2023-04-02T00:50:24.862Z,73.80
2023-04-02T00:52:55.682Z,73.96
2023-04-02T00:55:28.331Z,73.60
2023-04-02T00:57:58.838Z,73.60
2023-04-02T01:00:31.727Z,74.19
2023-04-02T01:03:29.685Z,73.96
2023-04-02T01:06:03.059Z,73.48
2023-04-02T01:08:47.922Z,74.58
2023-04-02T01:11:31.675Z,74.48
2023-04-02T01:14:04.151Z,74.10
2023-04-02T01:16:42.364Z,73.51
2023-04-02T01:19:33.922Z,73.27
2023-04-02T01:22:09.249Z,73.06
2023-04-02T01:24:38.496Z,73.70
2023-04-02T01:27:15.877Z,74.05
2023-04-02T01:29:48.979Z,74.39
2023-04-02T01:32:19.979Z,73.71
2023-04-02T01:34:50.760Z,73.29
2023-04-02T01:37:39.982Z,73.61
2023-04-02T01:40:24.967Z,73.50
2023-04-02T01:43:01.932Z,73.05
2023-04-02T01:45:31.176Z,73.15
2023-04-02T01:47:59.893Z,73.47
2023-04-02T01:50:32.235Z,73.59
2023-04-02T01:53:03.106Z,74.04
2023-04-02T01:55:35.851Z,74.11
2023-04-02T01:58:08.649Z,74.28
2023-04-02T02:00:44.953Z,74.98
2023-04-02T02:03:14.073Z,74.41
2023-04-02T02:05:42.541Z,74.23
2023-04-02T02:08:31.056Z,74.88
2023-04-02T02:10:59.612Z,75.45
2023-04-02T02:13:27.496Z,75.79
2023-04-02T02:15:59.959Z,75.82
2023-04-02T02:18:29.527Z,75.87
2023-04-02T02:21:00.747Z,75.42
2023-04-02T02:23:30.963Z,75.45
2023-04-02T02:25:59.868Z,75.44
2023-04-02T02:28:32.031Z,75.30
2023-04-02T02:31:05.877Z,74.74
2023-04-02T02:33:38.238Z,75.87
2023-04-02T02:36:16.183Z,74.79
2023-04-02T02:38:53.847Z,75.16
2023-04-02T02:41:41.433Z,75.09
2023-04-02T02:44:15.923Z,74.55
2023-04-02T02:46:51.329Z,75.23
2023-04-02T02:49:22.417Z,74.97
2023-04-02T02:51:59.138Z,74.45
2023-04-02T02:54:36.216Z,75.02
2023-04-02T02:57:07.970Z,75.16
2023-04-02T02:59:36.690Z,74.89
2023-04-02T03:02:08.157Z,74.48
2023-04-02T03:04:37.146Z,75.06
2023-04-02T03:07:10.772Z,75.58
2023-04-02T03:09:46.474Z,75.60
2023-04-02T03:12:30.750Z,75.38
2023-04-02T03:15:04.369Z,75.64
2023-04-02T03:17:38.678Z,75.11
2023-04-02T03:20:14.525Z,75.38
2023-04-02T03:22:47.338Z,75.60
2023-04-02T03:25:26.843Z,75.54
2023-04-02T03:28:02.862Z,75.11
2023-04-02T03:30:38.197Z,74.83
2023-04-02T03:33:15.134Z,75.17
2023-04-02T03:35:48.305Z,75.20
2023-04-02T03:38:21.587Z,75.29
2023-04-02T03:41:00.790Z,75.48
2023-04-02T03:43:33.309Z,75.39
2023-04-02T03:46:12.870Z,76.14
2023-04-02T03:48:47.181Z,75.54
2023-04-02T03:51:21.475Z,76.09
2023-04-02T03:53:50.471Z,75.40
2023-04-02T03:56:28.479Z,75.39
2023-04-02T03:59:12.713Z,75.47
2023-04-02T04:01:46.631Z,75.52
2023-04-02T04:04:19.138Z,74.73
2023-04-02T04:06:52.417Z,75.47
2023-04-02T04:09:27.762Z,76.21
2023-04-02T04:12:08.239Z,76.54
2023-04-02T04:14:38.758Z,76.13
2023-04-02T04:17:15.827Z,75.19
2023-04-02T04:19:49.687Z,75.27
2023-04-02T04:22:20.243Z,74.77
2023-04-02T04:24:54.188Z,76.04
2023-04-02T04:27:34.822Z,76.25
2023-04-02T04:30:10.466Z,75.54
2023-04-02T04:32:50.548Z,75.65
2023-04-02T04:35:31.508Z,75.44
2023-04-02T04:38:16.504Z,75.68
2023-04-02T04:40:52.689Z,75.54
2023-04-02T04:43:49.143Z,74.89
2023-04-02T04:46:21.605Z,74.66
2023-04-02T04:48:55.671Z,74.72
2023-04-02T04:51:30.863Z,74.67
2023-04-02T04:53:59.217Z,74.54
2023-04-02T04:56:33.052Z,74.86
2023-04-02T04:59:20.573Z,74.22
2023-04-02T05:01:56.794Z,74.66
2023-04-02T05:04:27.912Z,75.87
2023-04-02T05:07:04.403Z,75.80
2023-04-02T05:09:37.743Z,75.57
2023-04-02T05:12:18.568Z,75.69
2023-04-02T05:14:53.030Z,75.23
2023-04-02T05:17:29.208Z,74.85
2023-04-02T05:20:04.912Z,75.42
2023-04-02T05:22:43.462Z,75.00
2023-04-02T05:25:20.303Z,74.30
2023-04-02T05:27:55.767Z,75.05
2023-04-02T05:30:46.763Z,75.61
2023-04-02T05:33:23.336Z,77.33
2023-04-02T05:36:00.291Z,76.71
2023-04-02T05:38:33.765Z,76.75
2023-04-02T05:41:04.951Z,76.93
2023-04-02T05:43:35.633Z,77.75
2023-04-02T05:46:22.679Z,77.62
2023-04-02T05:48:56.467Z,77.20
2023-04-02T05:51:30.457Z,76.66
2023-04-02T05:54:02.895Z,76.85
2023-04-02T05:56:36.512Z,76.74
2023-04-02T05:59:10.581Z,77.79
2023-04-02T06:01:45.623Z,77.30
2023-04-02T06:04:30.274Z,76.91
2023-04-02T06:07:02.732Z,76.91
2023-04-02T06:09:39.970Z,77.27
2023-04-02T06:12:19.382Z,76.93
2023-04-02T06:14:48.612Z,76.58
2023-04-02T06:17:18.797Z,78.59
2023-04-02T06:19:48.142Z,77.37
2023-04-02T06:22:23.299Z,78.15
2023-04-02T06:25:04.214Z,77.46
2023-04-02T06:27:39.547Z,77.73
2023-04-02T06:30:18.351Z,77.17
2023-04-02T06:32:49.041Z,76.28
2023-04-02T06:35:18.369Z,76.42
2023-04-02T06:37:56.202Z,78.12
2023-04-02T06:40:40.772Z,79.40
2023-04-02T06:43:36.291Z,79.31
2023-04-02T06:46:37.338Z,78.30
2023-04-02T06:49:21.361Z,77.34
2023-04-02T06:51:54.535Z,76.32
2023-04-02T06:54:23.894Z,76.00
2023-04-02T06:56:58.203Z,77.29
2023-04-02T06:59:36.259Z,76.03
2023-04-02T07:02:23.543Z,76.96
2023-04-02T07:04:59.692Z,76.82
2023-04-02T07:07:33.226Z,76.57
2023-04-02T07:10:08.660Z,78.05
2023-04-02T07:12:38.077Z,78.92
2023-04-02T07:15:08.265Z,78.40
2023-04-02T07:17:36.764Z,77.06
2023-04-02T07:20:07.349Z,75.78
2023-04-02T07:22:35.280Z,75.78
2023-04-02T07:25:06.546Z,75.26
2023-04-02T07:27:35.931Z,74.89
2023-04-02T07:30:07.833Z,74.72
2023-04-02T07:32:36.675Z,74.16
2023-04-02T07:35:05.080Z,75.02
2023-04-02T07:37:33.444Z,77.12
2023-04-02T07:40:01.353Z,78.08
2023-04-02T07:42:30.224Z,76.74
2023-04-02T07:44:58.176Z,75.72
2023-04-02T07:47:27.716Z,74.88
2023-04-02T07:49:56.332Z,75.60
2023-04-02T07:52:24.872Z,75.67
2023-04-02T07:54:53.423Z,76.05
2023-04-02T07:57:21.423Z,74.72
2023-04-02T07:59:49.408Z,75.21
2023-04-02T08:02:21.554Z,74.78
2023-04-02T08:04:53.153Z,75.15
2023-04-02T08:07:25.216Z,75.35
2023-04-02T08:09:54.519Z,75.17
2023-04-02T08:12:23.813Z,74.96
2023-04-02T08:14:51.978Z,75.35
2023-04-02T08:17:21.550Z,74.95
2023-04-02T08:19:55.161Z,75.59
2023-04-02T08:22:24.356Z,74.50
2023-04-02T08:24:53.740Z,73.33
2023-04-02T08:27:23.569Z,75.38
2023-04-02T08:29:54.110Z,74.85
2023-04-02T08:32:24.507Z,72.65
2023-04-02T08:34:53.888Z,72.06
2023-04-02T08:37:22.638Z,72.25
2023-04-02T08:39:51.555Z,73.24
2023-04-02T08:42:27.248Z,73.44
2023-04-02T08:45:24.211Z,71.83
2023-04-02T08:47:57.771Z,71.32
2023-04-02T08:50:34.007Z,71.76
2023-04-02T08:53:05.863Z,72.65
2023-04-02T08:55:43.321Z,77.44
2023-04-02T08:58:25.883Z,76.13
2023-04-02T09:00:56.561Z,78.26
2023-04-02T09:03:31.043Z,76.25
2023-04-02T09:06:04.056Z,77.73
2023-04-02T09:08:35.753Z,75.60
2023-04-02T09:11:09.570Z,73.52
2023-04-02T09:13:46.401Z,73.16
2023-04-02T09:16:17.056Z,71.77
2023-04-02T09:18:49.393Z,72.62
2023-04-02T09:21:37.941Z,72.30
2023-04-02T09:24:06.464Z,74.76
2023-04-02T09:26:35.217Z,73.61
2023-04-02T09:29:25.888Z,71.31
2023-04-02T09:32:03.694Z,69.64
2023-04-02T09:34:33.674Z,72.78
2023-04-02T09:37:10.684Z,73.96
2023-04-02T09:39:39.393Z,72.33
2023-04-02T09:42:08.848Z,73.31
2023-04-02T09:44:37.932Z,73.16
2023-04-02T09:47:26.981Z,73.31
2023-04-02T09:49:56.621Z,72.54
2023-04-02T09:52:31.280Z,70.73
2023-04-02T09:55:20.156Z,71.34
2023-04-02T09:57:49.859Z,70.14
2023-04-02T10:00:31.225Z,69.23
2023-04-02T10:03:07.260Z,68.14
2023-04-02T10:08:17.010Z,67.35
2023-04-02T10:10:49.513Z,68.46
2023-04-02T10:13:23.808Z,67.43
2023-04-02T10:15:56.451Z,66.38
2023-04-02T10:18:37.566Z,66.55
2023-04-02T10:21:07.434Z,67.28
2023-04-02T10:23:38.096Z,66.86
2023-04-02T10:26:20.374Z,65.16
2023-04-02T10:29:09.378Z,67.14
2023-04-02T10:31:47.766Z,66.82
2023-04-02T10:34:24.738Z,64.20
2023-04-02T10:36:56.125Z,64.01
2023-04-02T10:39:32.521Z,67.71
2023-04-02T10:42:11.907Z,65.72
2023-04-02T10:44:56.671Z,67.38
2023-04-02T10:47:38.254Z,66.76
2023-04-02T10:50:27.867Z,65.64
2023-04-02T10:53:03.464Z,62.54
2023-04-02T10:55:39.679Z,63.21
2023-04-02T10:58:16.746Z,62.88
2023-04-02T11:00:47.780Z,63.86
2023-04-02T11:03:25.685Z,62.25
2023-04-02T11:05:58.468Z,62.61
2023-04-02T11:08:30.761Z,64.33
2023-04-02T11:11:04.921Z,66.06
2023-04-02T11:13:40.748Z,65.58
2023-04-02T11:16:11.077Z,64.30
2023-04-02T11:18:39.908Z,66.29
2023-04-02T11:21:08.919Z,67.47
2023-04-02T11:23:57.946Z,66.04
2023-04-02T11:26:53.538Z,64.86
2023-04-02T11:29:26.038Z,65.41
2023-04-02T11:32:16.891Z,64.78
2023-04-02T11:35:21.035Z,63.29
2023-04-02T11:37:50.104Z,66.73
2023-04-02T11:40:50.584Z,65.35
2023-04-02T11:44:00.576Z,65.27
2023-04-02T11:46:46.242Z,66.21
2023-04-02T11:49:42.085Z,65.76
2023-04-02T11:52:30.625Z,64.57
2023-04-02T11:55:06.457Z,63.79
2023-04-02T11:58:03.754Z,64.10
2023-04-02T12:00:56.160Z,64.73
2023-04-02T12:03:44.836Z,62.38
2023-04-02T12:06:19.159Z,64.16
2023-04-02T12:08:58.313Z,63.23
2023-04-02T12:11:35.146Z,62.70
2023-04-02T12:14:08.351Z,62.57
2023-04-02T12:16:40.207Z,61.18
2023-04-02T12:19:10.573Z,61.65
2023-04-02T12:21:40.121Z,61.22
2023-04-02T12:24:19.787Z,58.81
2023-04-02T12:26:50.661Z,62.51
2023-04-02T12:29:25.119Z,62.48
2023-04-02T12:31:56.199Z,60.22
2023-04-02T12:34:26.791Z,59.23
2023-04-02T12:36:57.096Z,64.09
2023-04-02T12:39:28.119Z,67.38
2023-04-02T12:41:58.061Z,68.86
2023-04-02T12:44:28.171Z,71.06
2023-04-02T12:46:59.253Z,71.26
2023-04-02T12:49:34.959Z,70.89
2023-04-02T12:52:05.143Z,71.49
2023-04-02T12:54:38.142Z,71.72
2023-04-02T12:57:23.285Z,71.16
2023-04-02T12:59:51.199Z,71.55
2023-04-02T13:02:24.594Z,72.40
2023-04-02T13:04:55.069Z,73.06
2023-04-02T13:07:25.317Z,74.02
2023-04-02T13:09:58.688Z,74.38
2023-04-02T13:12:30.794Z,75.47
2023-04-02T13:15:00.739Z,77.27
2023-04-02T13:17:45.278Z,80.27
2023-04-02T13:20:36.432Z,80.88
2023-04-02T13:23:27.154Z,82.27
2023-04-02T13:25:56.728Z,83.66
2023-04-02T13:28:28.378Z,83.44
2023-04-02T13:30:58.357Z,83.83
2023-04-02T13:33:30.272Z,83.95
2023-04-02T13:35:58.255Z,85.23
2023-04-02T13:38:29.121Z,86.85
2023-04-02T13:40:57.635Z,86.51
2023-04-02T13:43:27.676Z,87.19
2023-04-02T13:45:59.653Z,89.09
2023-04-02T13:48:29.238Z,90.44
2023-04-02T13:50:57.299Z,90.09
2023-04-02T13:53:32.338Z,91.49
2023-04-02T13:56:01.876Z,92.65
2023-04-02T13:58:32.158Z,93.52
2023-04-02T14:01:01.729Z,93.85
2023-04-02T14:03:32.634Z,94.82
2023-04-02T14:06:08.475Z,95.70
2023-04-02T14:08:52.643Z,95.96
2023-04-02T14:11:34.446Z,95.65
2023-04-02T14:14:26.874Z,95.00
2023-04-02T14:17:11.245Z,94.61
2023-04-02T14:19:54.998Z,94.44
2023-04-02T14:22:38.293Z,94.06
2023-04-02T14:25:13.928Z,93.14
2023-04-02T14:27:49.289Z,92.52
2023-04-02T14:30:24.654Z,93.01
2023-04-02T14:33:01.884Z,93.25
2023-04-02T14:35:36.608Z,92.15
2023-04-02T14:38:17.904Z,92.46
2023-04-02T14:41:01.156Z,92.13
2023-04-02T14:43:45.931Z,91.61
2023-04-02T14:46:37.939Z,91.36
2023-04-02T14:49:22.267Z,91.05
2023-04-02T14:51:55.082Z,90.76
2023-04-02T14:54:33.317Z,91.92
2023-04-02T14:57:11.511Z,93.02
2023-04-02T14:59:54.593Z,93.53
2023-04-02T15:02:35.843Z,94.31
2023-04-02T15:05:12.485Z,95.95
2023-04-02T15:07:51.278Z,96.66
2023-04-02T15:10:28.016Z,94.44
2023-04-02T15:12:58.276Z,95.33
2023-04-02T15:15:40.372Z,95.20
2023-04-02T15:18:15.075Z,96.59
2023-04-02T15:20:52.653Z,95.58
2023-04-02T15:23:37.213Z,94.50
2023-04-02T15:26:22.977Z,96.18
2023-04-02T15:29:30.145Z,94.06
2023-04-02T15:32:06.504Z,94.08
2023-04-02T15:34:41.941Z,95.00
2023-04-02T15:37:20.670Z,94.02
2023-04-02T15:40:04.790Z,93.90
2023-04-02T15:42:38.422Z,93.44
2023-04-02T15:45:23.366Z,93.81
2023-04-02T15:48:09.376Z,92.53
2023-04-02T15:50:52.619Z,92.74
2023-04-02T15:53:33.155Z,93.06
2023-04-02T15:56:17.025Z,92.29
2023-04-02T15:59:08.763Z,92.97
2023-04-02T16:01:48.660Z,91.66
2023-04-02T16:04:44.255Z,92.28
2023-04-02T16:07:38.358Z,91.93
2023-04-02T16:10:14.338Z,91.33
2023-04-02T16:12:43.640Z,91.72
2023-04-02T16:15:18.787Z,89.88
2023-04-02T16:17:52.384Z,89.48
2023-04-02T16:20:25.201Z,88.74
2023-04-02T16:23:00.773Z,87.84
2023-04-02T16:25:32.634Z,88.52
2023-04-02T16:28:14.871Z,87.96
2023-04-02T16:30:51.143Z,87.33
2023-04-02T16:33:33.148Z,87.51
2023-04-02T16:36:18.512Z,87.13
2023-04-02T16:38:58.120Z,86.60
2023-04-02T16:41:36.534Z,86.86
2023-04-02T16:44:16.446Z,87.22
2023-04-02T16:46:55.607Z,87.30
2023-04-02T16:49:32.444Z,87.84
2023-04-02T16:52:15.438Z,88.88
2023-04-02T16:54:52.514Z,88.00
2023-04-02T16:57:32.687Z,85.50
2023-04-02T17:00:13.424Z,85.01
2023-04-02T17:02:55.864Z,85.50
2023-04-02T17:05:32.530Z,84.75
2023-04-02T17:08:15.023Z,83.96
2023-04-02T17:10:50.817Z,84.25
2023-04-02T17:13:29.709Z,84.61
2023-04-02T17:16:07.539Z,84.58
2023-04-02T17:18:37.261Z,85.17
2023-04-02T17:21:08.559Z,85.04
2023-04-02T17:23:56.035Z,84.49
2023-04-02T17:26:29.155Z,82.87
2023-04-02T17:29:00.442Z,83.11
2023-04-02T17:31:35.426Z,82.75
2023-04-02T17:34:17.387Z,83.01
2023-04-02T17:37:00.383Z,83.56
2023-04-02T17:39:37.089Z,83.92
2023-04-02T17:42:15.422Z,82.97
2023-04-02T17:44:54.511Z,83.57
2023-04-02T17:47:26.254Z,83.68
2023-04-02T17:50:17.311Z,83.45
2023-04-02T17:52:53.430Z,83.51
2023-04-02T17:55:31.236Z,83.50
2023-04-02T17:58:11.297Z,82.44
2023-04-02T18:00:53.828Z,83.56
2023-04-02T18:03:36.938Z,83.91
2023-04-02T18:06:13.623Z,82.90
2023-04-02T18:08:53.863Z,82.27
2023-04-02T18:11:33.419Z,83.88
2023-04-02T18:14:19.888Z,83.71
2023-04-02T18:16:58.467Z,83.60
2023-04-02T18:19:37.479Z,82.88
2023-04-02T18:22:14.665Z,81.74
2023-04-02T18:25:02.164Z,81.78
2023-04-02T18:27:54.754Z,81.86
2023-04-02T18:30:30.364Z,81.89
2023-04-02T18:33:28.485Z,82.11
2023-04-02T18:36:06.374Z,81.24
2023-04-02T18:38:45.624Z,81.49
2023-04-02T18:41:31.860Z,83.09
2023-04-02T18:44:14.936Z,83.24
2023-04-02T18:46:50.969Z,82.60
2023-04-02T18:49:34.309Z,81.90
2023-04-02T18:52:14.497Z,82.46
2023-04-02T18:54:46.091Z,80.91
2023-04-02T18:57:23.136Z,80.95
2023-04-02T19:00:04.830Z,80.93
2023-04-02T19:02:51.870Z,81.80
2023-04-02T19:05:27.545Z,81.59
2023-04-02T19:08:04.122Z,81.43
2023-04-02T19:10:35.961Z,80.64
2023-04-02T19:13:09.551Z,81.00
2023-04-02T19:15:45.230Z,80.30
2023-04-02T19:18:23.852Z,80.31
2023-04-02T19:20:58.186Z,79.73
2023-04-02T19:23:42.228Z,80.17
2023-04-02T19:26:14.563Z,79.63
2023-04-02T19:28:49.030Z,79.83
2023-04-02T19:31:30.803Z,79.97
2023-04-02T19:34:11.267Z,79.86
2023-04-02T19:36:47.238Z,79.25
2023-04-02T19:39:53.637Z,79.32
2023-04-02T19:42:35.310Z,79.29
2023-04-02T19:45:03.896Z,78.57
2023-04-02T19:47:32.342Z,78.12
2023-04-02T19:50:00.331Z,78.41
2023-04-02T19:52:28.273Z,78.90
2023-04-02T19:54:57.546Z,78.49
2023-04-02T19:57:25.879Z,78.41
2023-04-02T19:59:53.845Z,78.84
2023-04-02T20:02:21.659Z,78.75
2023-04-02T20:04:49.533Z,78.35
2023-04-02T20:07:17.726Z,78.65
2023-04-02T20:09:45.698Z,78.43
2023-04-02T20:12:14.998Z,78.03
2023-04-02T20:14:43.014Z,77.69
2023-04-02T20:17:11.158Z,77.35
2023-04-02T20:19:39.184Z,77.04
2023-04-02T20:22:07.142Z,77.11
2023-04-02T20:24:35.355Z,77.00
2023-04-02T20:27:03.236Z,76.50
2023-04-02T20:29:32.947Z,77.06
2023-04-02T20:32:00.896Z,75.95
2023-04-02T20:34:29.265Z,76.69
2023-04-02T20:36:57.462Z,76.97
2023-04-02T20:39:25.425Z,76.07
2023-04-02T20:41:53.307Z,75.13
2023-04-02T20:44:21.458Z,75.60
2023-04-02T20:46:51.174Z,75.79
2023-04-02T20:49:19.237Z,75.90
2023-04-02T20:51:48.498Z,75.69
2023-04-02T20:54:16.571Z,75.52
2023-04-02T20:56:44.674Z,75.38
2023-04-02T20:59:13.191Z,75.58
2023-04-02T21:01:41.075Z,76.34
2023-04-02T21:04:10.618Z,75.35
2023-04-02T21:06:41.836Z,76.13
2023-04-02T21:09:15.265Z,75.66
2023-04-02T21:11:43.856Z,75.51
2023-04-02T21:14:11.852Z,75.89
2023-04-02T21:16:42.708Z,75.60
2023-04-02T21:19:14.099Z,75.64
2023-04-02T21:21:44.244Z,75.47
2023-04-02T21:24:12.506Z,75.33
2023-04-02T21:26:42.317Z,75.64
2023-04-02T21:29:12.239Z,75.14
2023-04-02T21:31:41.502Z,75.45
2023-04-02T21:34:13.984Z,74.84
2023-04-02T21:36:45.669Z,75.46
2023-04-02T21:39:18.304Z,74.29
2023-04-02T21:41:50.074Z,74.72
2023-04-02T21:44:20.132Z,74.32
2023-04-02T21:46:52.977Z,75.50
2023-04-02T21:49:23.727Z,75.41
2023-04-02T21:51:53.427Z,74.77
2023-04-02T21:54:21.520Z,74.99
2023-04-02T21:56:50.638Z,74.36
2023-04-02T21:59:18.966Z,74.59
2023-04-02T22:01:49.772Z,74.25
2023-04-02T22:04:23.036Z,74.02
2023-04-02T22:06:53.666Z,74.94
2023-04-02T22:09:24.409Z,74.72
2023-04-02T22:11:54.302Z,74.94
2023-04-02T22:14:23.234Z,74.79
2023-04-02T22:16:52.185Z,73.80
2023-04-02T22:19:22.299Z,74.42
2023-04-02T22:21:50.633Z,74.04
2023-04-02T22:24:22.081Z,74.28
2023-04-02T22:26:50.540Z,74.99
2023-04-02T22:29:18.706Z,74.39
2023-04-02T22:31:49.580Z,74.40
2023-04-02T22:34:17.788Z,74.18
2023-04-02T22:36:45.841Z,74.67
2023-04-02T22:39:15.086Z,73.67
2023-04-02T22:41:45.035Z,73.85
2023-04-02T22:44:16.011Z,73.39
2023-04-02T22:46:44.265Z,74.52
2023-04-02T22:49:19.188Z,74.11
2023-04-02T22:51:48.249Z,74.22
2023-04-02T22:54:16.586Z,72.82
2023-04-02T22:56:46.366Z,73.02
2023-04-02T22:59:14.792Z,73.30
2023-04-02T23:01:43.092Z,73.52
2023-04-02T23:04:11.189Z,73.49
2023-04-02T23:06:40.236Z,73.01
2023-04-02T23:09:08.900Z,73.11
2023-04-02T23:11:36.885Z,73.86
2023-04-02T23:14:06.430Z,73.52
2023-04-02T23:16:35.026Z,73.98
2023-04-02T23:19:03.570Z,73.93
2023-04-02T23:21:31.466Z,73.49
2023-04-02T23:24:00.179Z,74.31
2023-04-02T23:26:31.304Z,74.14
2023-04-02T23:29:00.939Z,73.06
2023-04-02T23:31:30.901Z,73.63
2023-04-02T23:33:59.393Z,73.52
2023-04-02T23:36:30.016Z,74.39
2023-04-02T23:39:01.548Z,74.11
2023-04-02T23:41:31.353Z,75.08
2023-04-02T23:44:01.864Z,74.54
2023-04-02T23:46:32.118Z,74.73
2023-04-02T23:49:01.396Z,74.15
2023-04-02T23:51:31.408Z,74.47
2023-04-02T23:53:59.883Z,74.19
2023-04-02T23:56:28.501Z,74.35
2023-04-02T23:58:56.568Z,74.77
